Time;durP1;ratioP1;P1;durP2;ratioP2;P2;SDS_P1;SDS_P2;PMS_P1;PMS_P2;Temp;Humidity;BMP_temperature;BMP_pressure;BME280_temperature;BME280_humidity;BME280_pressure;Samples;Min_cycle;Max_cycle;Signal;HPM_P1;HPM_P2
2021/08/30 12:08:22;;;;;;;3.97;2.57;;;13.20;99.90;;;;;;5068342;27;20576;-87
2021/08/30 12:10:47;;;;;;;2.00;1.80;;;13.00;99.90;;;;;;5054333;28;20185;-86
2021/08/30 12:15:51;;;;;;;1.70;1.50;;;16.70;99.90;;;;;;5069798;28;20181;-85
2021/08/30 12:18:18;;;;;;;1.07;0.97;;;15.80;99.90;;;;;;5075590;28;20196;-88
2021/08/30 12:20:45;;;;;;;1.10;0.90;;;16.00;99.90;;;;;;5055577;28;20651;-87
2021/08/30 12:23:20;;;;;;;1.10;0.80;;;15.90;99.90;;;;;;5052001;28;20174;-88
2021/08/30 12:25:48;;;;;;;1.80;0.70;;;15.70;99.90;;;;;;5051418;28;20667;-87
2021/08/30 12:28:15;;;;;;;0.90;0.80;;;15.90;99.90;;;;;;5053395;28;20557;-87
2021/08/30 12:30:47;;;;;;;1.20;0.70;;;15.90;99.90;;;;;;5051004;28;20185;-88
2021/08/30 12:33:20;;;;;;;0.83;0.70;;;15.60;99.90;;;;;;5055479;28;20227;-88
2021/08/30 12:35:47;;;;;;;1.50;1.23;;;15.40;99.90;;;;;;5055325;28;20167;-86
2021/08/30 12:38:19;;;;;;;1.07;0.90;;;15.20;99.90;;;;;;5057948;28;20210;-87
2021/08/30 12:40:50;;;;;;;1.30;1.03;;;14.90;99.90;;;;;;5055556;28;20163;-87
2021/08/30 12:43:17;;;;;;;1.10;0.90;;;14.70;99.90;;;;;;5055632;28;20251;-87
2021/08/30 12:45:44;;;;;;;1.90;1.33;;;14.60;99.90;;;;;;5055073;28;20709;-87
2021/08/30 12:48:10;;;;;;;1.20;1.10;;;14.50;99.90;;;;;;5053635;28;20201;-87
2021/08/30 12:50:36;;;;;;;1.50;1.40;;;14.50;99.90;;;;;;5057662;28;20207;-85
2021/08/30 12:53:03;;;;;;;2.53;1.50;;;14.50;99.90;;;;;;5056075;28;20189;-87
2021/08/30 12:55:29;;;;;;;1.23;0.97;;;14.70;99.90;;;;;;5060144;28;20179;-86
2021/08/30 12:57:55;;;;;;;1.30;1.20;;;14.80;99.90;;;;;;5056249;28;20203;-87
2021/08/30 13:00:24;;;;;;;1.20;1.10;;;14.90;99.90;;;;;;5055418;28;20540;-86
2021/08/30 13:02:51;;;;;;;1.93;1.30;;;15.00;99.90;;;;;;5054651;28;20237;-86
2021/08/30 13:05:25;;;;;;;1.40;1.30;;;15.00;99.90;;;;;;5056318;28;20191;-86
2021/08/30 13:07:53;;;;;;;2.13;1.53;;;15.10;99.90;;;;;;5055623;28;20248;-86
2021/08/30 13:10:20;;;;;;;1.63;1.30;;;15.10;99.90;;;;;;5055416;28;20178;-86
2021/08/30 13:12:47;;;;;;;2.23;1.50;;;15.10;99.90;;;;;;5056040;28;20187;-86
2021/08/30 13:15:13;;;;;;;1.90;1.53;;;15.20;99.90;;;;;;5055805;28;20184;-87
2021/08/30 13:17:40;;;;;;;1.67;1.57;;;15.20;99.90;;;;;;5050826;28;20187;-86
2021/08/30 13:20:08;;;;;;;1.30;1.20;;;15.10;99.90;;;;;;5042512;28;20190;-87
2021/08/30 13:22:33;;;;;;;1.60;1.40;;;15.10;99.90;;;;;;5040891;28;20273;-86
2021/08/30 13:24:59;;;;;;;1.57;1.40;;;15.30;99.90;;;;;;5041886;28;20243;-86
2021/08/30 13:27:25;;;;;;;1.50;1.40;;;15.60;99.90;;;;;;5040492;28;20204;-87
2021/08/30 13:29:51;;;;;;;1.20;1.10;;;16.40;99.90;;;;;;5039708;28;20226;-86
2021/08/30 13:32:20;;;;;;;1.40;1.03;;;17.40;99.90;;;;;;5040160;28;20173;-86
2021/08/30 13:34:46;;;;;;;2.73;1.50;;;17.40;99.90;;;;;;5040405;28;20275;-86
2021/08/30 13:37:12;;;;;;;1.30;1.20;;;17.10;99.90;;;;;;5040148;28;20604;-87
2021/08/30 13:39:38;;;;;;;0.87;0.87;;;16.80;99.90;;;;;;5039261;28;20714;-87
2021/08/30 13:42:04;;;;;;;1.00;0.87;;;16.60;99.90;;;;;;5039656;28;20184;-87
2021/08/30 13:44:31;;;;;;;1.90;1.00;;;16.30;99.90;;;;;;5038075;28;20196;-87
2021/08/30 13:46:56;;;;;;;1.43;0.90;;;16.10;99.90;;;;;;5038723;28;20271;-87
2021/08/30 13:49:22;;;;;;;0.80;0.80;;;15.80;99.90;;;;;;5038629;28;20214;-87
2021/08/30 13:51:48;;;;;;;1.20;1.10;;;15.50;99.90;;;;;;5039079;28;20174;-87
2021/08/30 13:54:14;;;;;;;1.57;0.90;;;15.20;99.90;;;;;;5041108;28;20178;-87
2021/08/30 13:56:39;;;;;;;1.93;1.00;;;15.00;99.90;;;;;;5038527;28;20718;-87
2021/08/30 13:59:05;;;;;;;1.50;1.20;;;14.80;99.90;;;;;;5037545;28;20292;-87
2021/08/30 14:01:31;;;;;;;1.77;1.40;;;14.80;99.90;;;;;;5039322;28;20238;-87
2021/08/30 14:03:57;;;;;;;1.10;1.00;;;14.80;99.90;;;;;;5039145;28;20566;-87
2021/08/30 14:06:23;;;;;;;1.40;1.10;;;14.70;99.90;;;;;;5037533;28;20209;-87
2021/08/30 14:08:48;;;;;;;0.80;0.80;;;14.70;99.90;;;;;;5037620;28;20200;-87
2021/08/30 14:11:14;;;;;;;1.80;0.90;;;14.70;99.90;;;;;;5038939;28;20572;-86
2021/08/30 14:13:40;;;;;;;1.07;0.93;;;14.70;99.90;;;;;;5038926;28;20212;-87
2021/08/30 14:16:05;;;;;;;1.20;1.10;;;14.70;99.90;;;;;;5039131;28;20201;-87
2021/08/30 14:18:31;;;;;;;1.67;1.57;;;14.80;99.90;;;;;;5039788;28;20652;-87
2021/08/30 14:20:58;;;;;;;1.47;1.10;;;;;;;;;;5038545;28;20186;-87
2021/08/30 14:23:23;;;;;;;1.20;1.10;;;14.90;99.90;;;;;;5046658;28;20204;-84
2021/08/30 14:25:50;;;;;;;1.63;1.10;;;;;;;;;;5040498;28;20190;-87
2021/08/30 14:28:15;;;;;;;5.57;4.30;;;14.80;99.90;;;;;;5037228;28;20197;-87
2021/08/30 14:30:43;;;;;;;3.57;3.27;;;14.90;99.90;;;;;;5036108;28;20179;-87
2021/08/30 14:33:11;;;;;;;1.63;1.43;;;14.90;99.90;;;;;;5037853;28;20166;-87
2021/08/30 14:35:37;;;;;;;1.80;1.50;;;14.90;99.90;;;;;;5038972;28;20171;-87
2021/08/30 14:38:04;;;;;;;1.40;1.30;;;15.00;99.90;;;;;;5021904;28;20336;-87
2021/08/30 14:40:30;;;;;;;1.57;1.37;;;15.00;99.90;;;;;;5036718;28;20304;-87
2021/08/30 14:42:58;;;;;;;2.20;1.67;;;15.00;99.90;;;;;;5037485;28;20174;-87
2021/08/30 14:45:24;;;;;;;1.90;1.67;;;14.90;99.90;;;;;;5037132;28;20209;-87
2021/08/30 14:47:50;;;;;;;1.40;1.30;;;14.70;99.90;;;;;;5036819;28;20260;-87
2021/08/30 14:50:15;;;;;;;1.40;1.30;;;14.70;99.90;;;;;;5037092;28;20182;-86
2021/08/30 14:52:41;;;;;;;1.90;1.70;;;;;;;;;;5036595;28;20174;-86
2021/08/30 14:55:08;;;;;;;1.57;1.47;;;14.50;99.90;;;;;;5046763;28;20178;-86
2021/08/30 14:57:33;;;;;;;1.60;1.37;;;14.50;99.90;;;;;;5058827;28;20166;-87
2021/08/30 14:59:59;;;;;;;2.17;2.00;;;14.50;99.90;;;;;;5059424;28;20242;-87
2021/08/30 15:02:25;;;;;;;1.97;1.87;;;;;;;;;;5040496;28;20190;-84
2021/08/30 15:04:51;;;;;;;2.03;1.40;;;14.50;99.90;;;;;;5045711;28;20186;-87
2021/08/30 15:07:16;;;;;;;1.50;1.40;;;14.60;99.90;;;;;;5038299;28;20214;-87
2021/08/30 15:09:42;;;;;;;1.50;1.40;;;14.50;99.90;;;;;;5043961;28;20285;-87
2021/08/30 15:12:08;;;;;;;1.63;1.27;;;14.60;99.90;;;;;;5038830;28;20273;-87
2021/08/30 15:14:34;;;;;;;1.40;1.30;;;14.50;99.90;;;;;;5038376;28;20178;-86
2021/08/30 15:17:00;;;;;;;2.80;1.63;;;14.60;99.90;;;;;;5037357;28;20655;-87
2021/08/30 15:19:26;;;;;;;3.13;1.50;;;14.60;99.90;;;;;;5036574;28;20209;-87
2021/08/30 15:21:51;;;;;;;2.57;1.40;;;15.00;99.90;;;;;;5037915;28;20217;-87
2021/08/30 15:24:17;;;;;;;1.27;1.17;;;15.70;99.90;;;;;;5037644;28;20186;-87
2021/08/30 15:26:43;;;;;;;1.00;0.90;;;16.10;99.90;;;;;;5037218;28;20209;-87
2021/08/30 15:29:11;;;;;;;1.43;1.03;;;16.00;99.90;;;;;;5037671;28;20688;-87
2021/08/30 15:31:38;;;;;;;2.03;1.30;;;15.80;99.90;;;;;;5037765;28;20182;-87
2021/08/30 15:34:04;;;;;;;2.00;1.80;;;15.30;99.90;;;;;;5037439;28;20216;-87
2021/08/30 15:36:30;;;;;;;1.87;1.43;;;15.30;99.90;;;;;;5036693;28;20186;-87
2021/08/30 15:38:57;;;;;;;1.60;1.50;;;15.00;99.90;;;;;;5020300;28;20213;-87
2021/08/30 15:41:23;;;;;;;20.47;18.47;;;14.80;99.90;;;;;;5036791;28;20189;-87
2021/08/30 15:43:49;;;;;;;9.70;8.70;;;14.60;99.90;;;;;;5036715;28;20182;-88
2021/08/30 15:46:15;;;;;;;8.70;7.90;;;;;;;;;;5041315;28;20213;-87
2021/08/30 15:48:41;;;;;;;3.03;2.60;;;14.20;99.90;;;;;;5036138;28;20308;-87
2021/08/30 15:51:09;;;;;;;1.23;1.13;;;14.20;99.90;;;;;;5035591;28;20585;-88
2021/08/30 15:53:36;;;;;;;2.50;2.30;;;14.10;99.90;;;;;;5035638;28;20178;-87
2021/08/30 15:56:02;;;;;;;4.50;4.20;;;14.00;99.90;;;;;;5036422;28;20190;-89
2021/08/30 15:58:28;;;;;;;5.40;5.00;;;13.90;99.90;;;;;;5036066;28;20194;-88
2021/08/30 16:00:54;;;;;;;7.83;6.17;;;13.90;99.90;;;;;;5035353;28;20213;-89
2021/08/30 16:03:20;;;;;;;42.80;34.60;;;;;;;;;;5027449;28;20183;-89
2021/08/30 16:05:46;;;;;;;6.53;5.43;;;13.80;99.90;;;;;;5016950;28;20179;-88
2021/08/30 16:08:12;;;;;;;13.53;12.07;;;13.80;99.90;;;;;;5015628;28;20694;-88
2021/08/30 16:10:37;;;;;;;98.47;62.43;;;13.80;99.90;;;;;;5015387;28;20174;-88
2021/08/30 16:13:03;;;;;;;99.50;70.47;;;13.80;99.90;;;;;;5021586;28;20266;-88
2021/08/30 16:15:30;;;;;;;13.37;11.90;;;13.80;99.90;;;;;;5016283;28;20202;-88
2021/08/30 16:17:57;;;;;;;30.67;27.33;;;13.90;99.90;;;;;;5017272;28;20203;-88
2021/08/30 16:20:25;;;;;;;7.83;6.80;;;13.90;99.90;;;;;;5017682;28;20274;-88
2021/08/30 16:22:51;;;;;;;8.97;6.30;;;13.90;99.90;;;;;;5016960;28;20183;-88
2021/08/30 16:25:19;;;;;;;4.23;3.90;;;13.90;99.90;;;;;;5016435;28;20178;-88
2021/08/30 16:27:46;;;;;;;3.97;3.67;;;13.80;99.90;;;;;;5016255;28;20233;-88
2021/08/30 16:30:13;;;;;;;4.60;4.20;;;13.80;99.90;;;;;;5015755;28;20182;-88
2021/08/30 16:32:39;;;;;;;34.20;30.80;;;13.80;99.90;;;;;;5015433;28;20215;-88
2021/08/30 16:35:07;;;;;;;33.23;29.80;;;13.80;99.90;;;;;;5017418;28;20637;-90
2021/08/30 16:37:33;;;;;;;54.53;49.07;;;13.80;99.90;;;;;;5016643;28;20210;-88
2021/08/30 16:40:13;;;;;;;32.60;29.23;;;13.80;99.90;;;;;;5017268;28;20193;-88
2021/08/30 16:42:39;;;;;;;11.97;10.83;;;13.80;99.90;;;;;;5017915;28;20167;-90
2021/08/30 16:45:06;;;;;;;9.37;8.43;;;13.80;99.90;;;;;;5023883;28;20179;-88
2021/08/30 16:47:33;;;;;;;10.27;8.00;;;13.70;99.90;;;;;;5017002;28;20206;-89
2021/08/30 16:49:59;;;;;;;12.10;6.90;;;13.70;99.90;;;;;;5023092;28;20185;-89
2021/08/30 16:52:25;;;;;;;6.83;5.87;;;;;;;;;;5038349;28;20178;-89
2021/08/30 16:54:52;;;;;;;5.60;5.10;;;13.70;99.90;;;;;;5042522;28;20196;-89
2021/08/30 16:57:19;;;;;;;5.40;3.47;;;13.70;99.90;;;;;;5041590;28;20178;-90
2021/08/30 16:59:45;;;;;;;6.67;4.53;;;13.60;99.90;;;;;;5041220;28;20248;-89
2021/08/30 17:02:11;;;;;;;4.37;3.97;;;13.50;99.90;;;;;;5041264;28;20186;-89
2021/08/30 17:04:36;;;;;;;2.47;2.27;;;13.50;99.90;;;;;;5040539;28;20178;-90
2021/08/30 17:07:02;;;;;;;3.47;3.17;;;13.40;99.90;;;;;;5034267;28;20210;-90
2021/08/30 17:09:30;;;;;;;5.17;4.63;;;13.30;99.90;;;;;;5022150;28;20198;-89
2021/08/30 17:11:59;;;;;;;5.00;3.47;;;13.30;99.90;;;;;;5022299;28;20171;-89
2021/08/30 17:14:29;;;;;;;6.53;4.10;;;13.20;99.90;;;;;;5021065;28;20555;-89
2021/08/30 17:16:55;;;;;;;5.23;3.27;;;13.20;99.90;;;;;;5020577;28;20206;-89
2021/08/30 17:19:21;;;;;;;4.07;3.57;;;13.20;99.90;;;;;;5019759;28;20280;-89
2021/08/30 17:21:47;;;;;;;4.90;4.40;;;14.70;99.90;;;;;;5036453;28;20214;-89
2021/08/30 17:24:14;;;;;;;5.03;3.50;;;;;;;;;;5035969;28;20179;-86
2021/08/30 17:26:42;;;;;;;3.70;3.40;;;13.10;99.90;;;;;;5058724;28;20667;-89
2021/08/30 17:29:09;;;;;;;3.20;2.90;;;13.10;99.90;;;;;;5059412;28;20197;-89
2021/08/30 17:31:36;;;;;;;5.07;3.80;;;13.10;99.90;;;;;;5060328;28;20185;-88
2021/08/30 17:34:03;;;;;;;11.70;10.23;;;13.00;99.90;;;;;;5058847;28;20188;-88
2021/08/30 17:36:29;;;;;;;7.43;4.57;;;13.00;99.90;;;;;;5040292;28;20225;-88
2021/08/30 17:38:55;;;;;;;5.77;4.70;;;13.00;99.90;;;;;;5041105;28;20198;-87
2021/08/30 17:41:21;;;;;;;6.80;4.03;;;13.00;99.90;;;;;;5050383;28;20205;-86
2021/08/30 17:43:50;;;;;;;4.03;2.30;;;12.90;99.90;;;;;;5051243;28;20179;-88
2021/08/30 17:46:16;;;;;;;3.57;2.73;;;12.90;99.90;;;;;;5048352;28;20205;-89
2021/08/30 17:48:42;;;;;;;1.80;1.70;;;12.90;99.90;;;;;;5042261;28;20201;-88
2021/08/30 17:51:08;;;;;;;1.97;1.80;;;12.90;99.90;;;;;;5041599;28;20178;-88
2021/08/30 17:53:34;;;;;;;4.63;3.17;;;;;;;;;;5039358;28;20181;-90
2021/08/30 17:56:00;;;;;;;8.37;4.57;;;12.90;99.90;;;;;;5040049;28;20174;-88
2021/08/30 17:58:26;;;;;;;2.57;2.33;;;12.90;99.90;;;;;;5031228;28;20210;-89
2021/08/30 18:00:52;;;;;;;3.03;2.50;;;12.80;99.90;;;;;;5021602;28;20178;-87
2021/08/30 18:03:22;;;;;;;3.37;3.07;;;12.90;99.90;;;;;;5019312;28;20179;-88
2021/08/30 18:05:49;;;;;;;6.37;5.13;;;12.80;99.90;;;;;;5019577;28;20187;-89
2021/08/30 18:08:16;;;;;;;8.70;5.53;;;12.80;99.90;;;;;;5019231;28;20198;-88
2021/08/30 18:10:42;;;;;;;19.13;11.53;;;12.80;99.90;;;;;;5018816;28;20186;-88
2021/08/30 18:13:08;;;;;;;23.20;13.43;;;12.70;99.90;;;;;;5019533;28;20175;-88
2021/08/30 18:15:34;;;;;;;13.20;7.73;;;12.70;99.90;;;;;;5032988;28;20184;-88
2021/08/30 18:18:00;;;;;;;4.50;3.37;;;12.80;99.90;;;;;;5038954;28;20202;-88
2021/08/30 18:20:25;;;;;;;10.63;6.60;;;12.70;99.90;;;;;;5039800;28;20185;-87
2021/08/30 18:22:52;;;;;;;16.57;13.23;;;12.70;99.90;;;;;;5041853;28;20257;-87
2021/08/30 18:25:18;;;;;;;5.10;4.60;;;12.70;99.90;;;;;;5039589;28;20182;-87
2021/08/30 18:27:46;;;;;;;4.57;4.17;;;12.70;99.90;;;;;;5040150;28;20208;-88
2021/08/30 18:30:12;;;;;;;3.63;3.30;;;12.70;99.90;;;;;;5040112;28;20679;-87
2021/08/30 18:32:38;;;;;;;3.33;2.97;;;12.70;99.90;;;;;;5043393;28;20265;-88
2021/08/30 18:35:04;;;;;;;2.60;2.40;;;12.70;99.90;;;;;;5045719;28;20200;-88
2021/08/30 18:37:30;;;;;;;2.97;2.67;;;12.70;99.90;;;;;;5039992;28;20186;-87
2021/08/30 18:39:56;;;;;;;2.80;2.47;;;12.70;99.90;;;;;;5040254;28;20260;-88
2021/08/30 18:42:21;;;;;;;4.73;3.50;;;12.70;99.90;;;;;;5041974;28;20189;-88
2021/08/30 18:44:47;;;;;;;4.33;3.67;;;12.70;99.90;;;;;;5040319;28;20216;-88
2021/08/30 18:47:13;;;;;;;4.63;3.00;;;;;;;;;;5041010;28;20619;-87
2021/08/30 18:49:39;;;;;;;8.37;5.63;;;12.70;99.90;;;;;;5020976;28;20206;-88
2021/08/30 18:52:06;;;;;;;6.03;5.30;;;12.70;99.90;;;;;;5020678;28;20590;-88
2021/08/30 18:54:32;;;;;;;5.87;4.37;;;12.80;99.90;;;;;;5020807;28;20212;-88
2021/08/30 18:56:59;;;;;;;6.87;3.67;;;12.80;99.90;;;;;;5036735;28;20547;-88
2021/08/30 18:59:25;;;;;;;3.97;2.97;;;12.80;99.90;;;;;;5037303;28;20613;-88
2021/08/30 19:01:53;;;;;;;4.00;3.23;;;12.80;99.90;;;;;;5036586;28;20182;-88
2021/08/30 19:04:18;;;;;;;3.83;3.43;;;12.80;99.90;;;;;;5036240;28;20188;-88
2021/08/30 19:06:45;;;;;;;2.80;2.60;;;;;;;;;;5039027;28;20213;-87
2021/08/30 19:09:11;;;;;;;3.63;3.23;;;12.80;99.90;;;;;;5035688;28;20205;-87
2021/08/30 19:11:37;;;;;;;4.33;3.77;;;12.80;99.90;;;;;;5035770;28;20174;-87
2021/08/30 19:14:02;;;;;;;3.63;3.27;;;12.80;99.90;;;;;;5035831;28;20178;-87
2021/08/30 19:16:28;;;;;;;3.20;2.90;;;12.80;99.90;;;;;;5035679;28;20192;-87
2021/08/30 19:18:53;;;;;;;6.00;2.83;;;12.80;99.90;;;;;;5036260;28;20240;-87
2021/08/30 19:21:19;;;;;;;5.10;3.30;;;12.80;99.90;;;;;;5037658;28;20216;-88
2021/08/30 19:23:45;;;;;;;7.10;3.63;;;;;;;;;;5039263;28;20174;-88
2021/08/30 19:26:11;;;;;;;6.73;4.03;;;12.80;99.90;;;;;;5039179;28;20289;-88
2021/08/30 19:28:37;;;;;;;7.73;6.90;;;12.80;99.90;;;;;;5038614;28;20262;-88
2021/08/30 19:31:02;;;;;;;7.30;4.83;;;12.80;99.90;;;;;;5040999;28;20206;-88
2021/08/30 19:33:28;;;;;;;4.60;4.17;;;12.80;99.90;;;;;;5041645;28;20178;-89
2021/08/30 19:35:54;;;;;;;4.20;3.50;;;12.80;99.90;;;;;;5040313;28;20178;-86
2021/08/30 19:38:19;;;;;;;5.47;3.90;;;12.70;99.90;;;;;;5041077;28;20200;-87
2021/08/30 19:40:45;;;;;;;3.37;3.03;;;;;;;;;;5036900;28;20549;-87
2021/08/30 19:43:13;;;;;;;6.97;6.27;;;12.70;99.90;;;;;;5034943;28;20192;-88
2021/08/30 19:45:39;;;;;;;4.30;3.90;;;12.80;99.90;;;;;;5035571;28;20201;-87
2021/08/30 19:48:05;;;;;;;3.53;3.00;;;12.70;99.90;;;;;;5035288;28;20609;-88
2021/08/30 19:50:32;;;;;;;3.60;2.20;;;12.60;99.90;;;;;;5038338;28;20178;-88
2021/08/30 19:52:58;;;;;;;3.20;2.90;;;12.60;99.90;;;;;;5038935;28;20158;-87
2021/08/30 19:55:24;;;;;;;2.23;1.83;;;;;;;;;;5035500;28;20180;-87
2021/08/30 19:57:49;;;;;;;3.97;2.73;;;12.60;99.90;;;;;;5036989;28;20184;-87
2021/08/30 20:00:17;;;;;;;2.80;2.20;;;12.60;99.90;;;;;;5036433;28;20178;-87
2021/08/30 20:02:43;;;;;;;2.77;2.00;;;12.60;99.90;;;;;;5043103;28;20182;-88
2021/08/30 20:05:10;;;;;;;4.03;2.60;;;12.60;99.90;;;;;;5041910;28;20269;-87
2021/08/30 20:07:40;;;;;;;3.63;2.53;;;12.50;99.90;;;;;;5039387;28;20728;-87
2021/08/30 20:10:08;;;;;;;2.93;2.30;;;12.50;99.90;;;;;;5040443;28;20214;-88
2021/08/30 20:12:34;;;;;;;3.47;1.97;;;12.50;99.90;;;;;;5037846;28;20182;-87
2021/08/30 20:15:00;;;;;;;3.10;2.23;;;12.60;99.90;;;;;;5039383;28;20205;-87
2021/08/30 20:17:26;;;;;;;4.33;2.47;;;;;;;;;;5041646;28;20185;-88
2021/08/30 20:19:52;;;;;;;3.70;2.30;;;12.60;99.90;;;;;;5036566;28;20209;-87
2021/08/30 20:22:18;;;;;;;6.10;2.20;;;;;;;;;;5037307;28;20260;-86
2021/08/30 20:24:44;;;;;;;2.40;1.80;;;12.60;99.90;;;;;;5038414;28;20177;-87
2021/08/30 20:27:09;;;;;;;2.83;2.27;;;12.60;99.90;;;;;;5034429;28;20210;-87
2021/08/30 20:29:35;;;;;;;4.77;3.43;;;12.70;99.90;;;;;;5039873;28;20205;-87
2021/08/30 20:32:01;;;;;;;3.87;3.00;;;12.70;99.90;;;;;;5045772;28;20289;-88
2021/08/30 20:34:28;;;;;;;4.17;3.03;;;12.70;99.90;;;;;;5056645;28;20181;-88
2021/08/30 20:36:53;;;;;;;5.30;3.93;;;12.70;99.90;;;;;;5062394;28;20173;-88
2021/08/30 20:39:20;;;;;;;2.50;2.10;;;12.70;99.90;;;;;;5043074;28;20217;-86
2021/08/30 20:41:46;;;;;;;2.57;2.30;;;12.70;99.90;;;;;;5040609;28;20174;-88
2021/08/30 20:44:12;;;;;;;3.10;2.40;;;12.70;99.90;;;;;;5040263;28;20243;-88
2021/08/30 20:46:37;;;;;;;3.30;2.57;;;12.60;99.90;;;;;;5039636;28;20213;-88
2021/08/30 20:49:03;;;;;;;4.30;2.50;;;;;;;;;;5052924;28;20201;-88
2021/08/30 20:51:29;;;;;;;4.93;2.90;;;12.70;99.90;;;;;;5038732;28;20189;-89
2021/08/30 20:53:55;;;;;;;4.67;3.03;;;12.70;99.90;;;;;;5039375;28;20188;-88
2021/08/30 20:56:21;;;;;;;2.60;2.00;;;;;;;;;;5041597;28;20578;-88
2021/08/30 20:58:47;;;;;;;4.60;2.30;;;12.60;99.90;;;;;;5038504;28;20204;-88
2021/08/30 21:01:13;;;;;;;3.83;2.57;;;;;;;;;;5039584;28;20184;-88
2021/08/30 21:03:38;;;;;;;3.03;2.07;;;12.50;99.90;;;;;;5041503;28;20650;-88
2021/08/30 21:06:04;;;;;;;3.07;2.50;;;12.50;99.90;;;;;;5039140;28;20282;-87
2021/08/30 21:08:30;;;;;;;3.80;2.43;;;12.50;99.90;;;;;;5040493;28;20233;-87
2021/08/30 21:10:55;;;;;;;3.50;2.90;;;12.50;99.90;;;;;;5038993;28;20232;-87
2021/08/30 21:13:21;;;;;;;4.40;2.73;;;12.50;99.90;;;;;;5039927;28;20174;-88
2021/08/30 21:15:46;;;;;;;6.63;3.33;;;12.50;99.90;;;;;;5041093;28;20174;-87
2021/08/30 21:18:12;;;;;;;12.93;5.70;;;12.50;99.90;;;;;;5040121;28;20198;-87
2021/08/30 21:20:38;;;;;;;6.07;3.90;;;12.50;99.90;;;;;;5038575;28;20269;-87
2021/08/30 21:23:03;;;;;;;6.67;3.40;;;12.40;99.90;;;;;;5039940;28;20213;-87
2021/08/30 21:25:29;;;;;;;3.20;2.60;;;12.40;99.90;;;;;;5040559;28;20177;-87
2021/08/30 21:27:55;;;;;;;1.97;1.77;;;12.40;99.90;;;;;;5038444;28;20217;-87
2021/08/30 21:30:21;;;;;;;2.07;1.80;;;12.40;99.90;;;;;;5038614;28;20185;-87
2021/08/30 21:32:47;;;;;;;1.67;1.50;;;;;;;;;;5037404;28;20259;-87
2021/08/30 21:35:12;;;;;;;1.90;1.70;;;12.40;99.90;;;;;;5036554;28;20174;-89
2021/08/30 21:37:38;;;;;;;1.90;1.67;;;12.40;99.90;;;;;;5035558;28;20232;-88
2021/08/30 21:40:04;;;;;;;2.20;2.00;;;12.40;99.90;;;;;;5035481;28;20180;-87
2021/08/30 21:42:30;;;;;;;1.87;1.57;;;12.40;99.90;;;;;;5035914;28;20182;-88
2021/08/30 21:44:56;;;;;;;2.17;1.93;;;12.40;99.90;;;;;;5035712;28;20681;-87
2021/08/30 21:47:21;;;;;;;2.30;1.90;;;12.40;99.90;;;;;;5038014;28;20202;-88
2021/08/30 21:49:47;;;;;;;2.80;2.00;;;12.40;99.90;;;;;;5036757;28;20239;-88
2021/08/30 21:52:12;;;;;;;2.40;2.20;;;12.40;99.90;;;;;;5037221;28;20252;-87
2021/08/30 21:54:38;;;;;;;2.60;2.23;;;12.50;99.90;;;;;;5035790;28;20205;-87
2021/08/30 21:57:04;;;;;;;2.20;2.00;;;12.50;99.90;;;;;;5037027;28;20174;-87
2021/08/30 21:59:30;;;;;;;2.03;1.80;;;12.50;99.90;;;;;;5035441;28;20212;-87
2021/08/30 22:01:56;;;;;;;2.40;2.20;;;12.50;99.90;;;;;;5043810;28;20169;-88
2021/08/30 22:04:22;;;;;;;2.37;1.97;;;12.50;99.90;;;;;;5040658;28;20213;-88
2021/08/30 22:06:48;;;;;;;2.83;2.27;;;12.50;99.90;;;;;;5038573;28;20222;-87
2021/08/30 22:09:14;;;;;;;3.50;2.73;;;12.40;99.90;;;;;;5039470;28;20553;-87
2021/08/30 22:11:39;;;;;;;2.40;2.20;;;12.40;99.90;;;;;;5037261;28;20218;-87
2021/08/30 22:14:05;;;;;;;2.57;2.33;;;12.40;99.90;;;;;;5037755;28;20175;-87
2021/08/30 22:16:31;;;;;;;3.50;2.40;;;12.50;99.90;;;;;;5039481;28;20683;-87
2021/08/30 22:18:56;;;;;;;3.50;2.70;;;12.50;99.90;;;;;;5050505;28;20202;-87
2021/08/30 22:21:22;;;;;;;3.43;2.70;;;12.50;99.90;;;;;;5055116;28;20213;-87
2021/08/30 22:23:48;;;;;;;4.67;2.97;;;12.50;99.90;;;;;;5040289;28;20349;-88
2021/08/30 22:26:14;;;;;;;3.50;2.90;;;;;;;;;;5036210;28;20271;-87
2021/08/30 22:28:40;;;;;;;4.13;3.33;;;12.50;99.90;;;;;;5037123;28;20558;-87
2021/08/30 22:31:06;;;;;;;3.70;3.30;;;12.50;99.90;;;;;;5037679;28;20202;-87
2021/08/30 22:33:32;;;;;;;4.03;3.63;;;12.50;99.90;;;;;;5035486;28;20277;-87
2021/08/30 22:35:57;;;;;;;4.27;3.70;;;12.50;99.90;;;;;;5035741;28;20182;-87
2021/08/30 22:38:23;;;;;;;5.63;3.80;;;12.50;99.90;;;;;;5035709;28;20198;-87
2021/08/30 22:40:49;;;;;;;4.30;3.90;;;12.50;99.90;;;;;;5037039;28;20256;-87
2021/08/30 22:43:15;;;;;;;4.73;4.23;;;;;;;;;;5036485;28;20213;-87
2021/08/30 22:45:40;;;;;;;7.20;3.83;;;12.50;99.90;;;;;;5035050;28;20189;-87
